Jhang Weather



Jhang's Current Weather

Temprature 23.12o clear sky

clear sky

Rain: 0 %

Min Temprature23.12o
Max Temprature23.12o
Humidity42
Wind Speed6.61 m/h
Sun Rise05:03:22
Sun Set19:09:00
Current Time: 24-May-2022 07:51:00
Lat/Lon: 33.6748, 72.6963




Jhang's Geo Location



Jhang's Weather Forecast

Time Overall Temp Min Temp Max Temp Humidity Wind Speed Rain
24-May-2022 (Tue)
08:00:00 clear sky 23.120 23.120 25.100 42 6.61 m/h 0 %
11:00:00 clear sky 25.450 25.450 30.100 37 4.35 m/h 0 %
14:00:00 clear sky 29.730 29.730 33.030 27 3.31 m/h 0 %
17:00:00 clear sky 33.330 33.330 33.330 18 1.92 m/h 0 %
20:00:00 clear sky 28.420 28.420 28.420 25 1.51 m/h 0 %
23:00:00 clear sky 25.940 25.940 25.940 30 0.97 m/h 0 %
25-May-2022 (Wed)
02:00:00 clear sky 24.350 24.350 24.350 34 1.33 m/h 0 %
05:00:00 clear sky 23.860 23.860 23.860 34 2.43 m/h 0 %
08:00:00 clear sky 29.880 29.880 29.880 24 1.19 m/h 0 %
11:00:00 clear sky 34.750 34.750 34.750 18 2.87 m/h 0 %
14:00:00 clear sky 37.340 37.340 37.340 14 3.36 m/h 0 %
17:00:00 clear sky 37.560 37.560 37.560 13 1.69 m/h 0 %
20:00:00 clear sky 31.650 31.650 31.650 19 0.77 m/h 0 %
23:00:00 clear sky 29.520 29.520 29.520 22 1.2 m/h 0 %
26-May-2022 (Thu)
02:00:00 clear sky 27.510 27.510 27.510 26 1.25 m/h 0 %
05:00:00 clear sky 26.430 26.430 26.430 27 2.26 m/h 0 %
08:00:00 clear sky 32.670 32.670 32.670 19 1.22 m/h 0 %
11:00:00 clear sky 37.870 37.870 37.870 14 2.44 m/h 0 %
14:00:00 clear sky 40.950 40.950 40.950 10 3.63 m/h 0 %
17:00:00 clear sky 40.910 40.910 40.910 8 1.07 m/h 0 %
20:00:00 clear sky 34.300 34.300 34.300 13 1.48 m/h 0 %
23:00:00 clear sky 31.180 31.180 31.180 17 1.28 m/h 0 %
27-May-2022 (Fri)
02:00:00 clear sky 30.190 30.190 30.190 18 3.22 m/h 0 %
05:00:00 clear sky 28.130 28.130 28.130 22 2.26 m/h 0 %
08:00:00 clear sky 34.610 34.610 34.610 16 0.57 m/h 0 %
11:00:00 clear sky 40.470 40.470 40.470 11 1.54 m/h 0 %
14:00:00 clear sky 42.920 42.920 42.920 9 2.27 m/h 0 %
17:00:00 clear sky 43.260 43.260 43.260 8 2.81 m/h 0 %
20:00:00 clear sky 36.540 36.540 36.540 12 1.97 m/h 0 %
23:00:00 clear sky 34.090 34.090 34.090 14 3.16 m/h 0 %
28-May-2022 (Sat)
02:00:00 few clouds 31.390 31.390 31.390 16 2.39 m/h 0 %
05:00:00 scattered clouds 29.600 29.600 29.600 20 4.53 m/h 0 %
08:00:00 clear sky 33.490 33.490 33.490 17 6.35 m/h 0 %
11:00:00 clear sky 40.400 40.400 40.400 12 3.45 m/h 0 %
14:00:00 clear sky 43.290 43.290 43.290 10 2.51 m/h 0 %
17:00:00 few clouds 38.380 38.380 38.380 16 9.16 m/h 0 %
20:00:00 overcast clouds 35.160 35.160 35.160 21 4.09 m/h 0 %
23:00:00 broken clouds 30.460 30.460 30.460 30 3.52 m/h 0 %
29-May-2022 (Sun)
02:00:00 broken clouds 28.440 28.440 28.440 33 2.19 m/h 0 %
05:00:00 broken clouds 26.830 26.830 26.830 34 1.79 m/h 0 %

Famous Cities (61)